sensor_id;sensor_type;location;lat;lon;timestamp;pressure;altitude;pressure_sealevel;temperature;humidity
59789;BME280;47353;51.614;5.530;2023-08-07T00:00:04;101220.00;;;12.96;100.00
59789;BME280;47353;51.614;5.530;2023-08-07T00:02:29;101222.78;;;12.96;100.00
59789;BME280;47353;51.614;5.530;2023-08-07T00:04:55;101226.41;;;13.01;100.00
59789;BME280;47353;51.614;5.530;2023-08-07T00:07:20;101225.84;;;12.94;100.00
59789;BME280;47353;51.614;5.530;2023-08-07T00:09:46;101221.16;;;13.00;100.00
59789;BME280;47353;51.614;5.530;2023-08-07T00:12:11;101221.13;;;12.95;100.00
59789;BME280;47353;51.614;5.530;2023-08-07T00:14:37;101218.38;;;13.00;100.00
59789;BME280;47353;51.614;5.530;2023-08-07T00:17:02;101228.06;;;12.97;100.00
59789;BME280;47353;51.614;5.530;2023-08-07T00:19:29;101218.63;;;12.93;100.00
59789;BME280;47353;51.614;5.530;2023-08-07T00:21:54;101223.91;;;12.95;100.00
59789;BME280;47353;51.614;5.530;2023-08-07T00:24:20;101224.19;;;12.98;100.00
59789;BME280;47353;51.614;5.530;2023-08-07T00:26:45;101219.72;;;12.97;100.00
59789;BME280;47353;51.614;5.530;2023-08-07T00:29:11;101220.00;;;12.96;100.00
59789;BME280;47353;51.614;5.530;2023-08-07T00:31:36;101225.56;;;13.01;100.00
59789;BME280;47353;51.614;5.530;2023-08-07T00:34:01;101218.91;;;12.92;100.00
59789;BME280;47353;51.614;5.530;2023-08-07T00:36:29;101230.03;;;12.92;100.00
59789;BME280;47353;51.614;5.530;2023-08-07T00:38:54;101238.63;;;12.95;100.00
59789;BME280;47353;51.614;5.530;2023-08-07T00:41:20;101223.63;;;12.96;100.00
59789;BME280;47353;51.614;5.530;2023-08-07T00:43:46;101227.25;;;12.92;100.00
59789;BME280;47353;51.614;5.530;2023-08-07T00:46:11;101227.25;;;12.92;100.00
59789;BME280;47353;51.614;5.530;2023-08-07T00:48:37;101223.34;;;12.93;100.00
59789;BME280;47353;51.614;5.530;2023-08-07T00:51:03;101235.00;;;12.95;100.00
59789;BME280;47353;51.614;5.530;2023-08-07T00:53:30;101237.53;;;12.91;100.00
59789;BME280;47353;51.614;5.530;2023-08-07T00:55:56;101230.84;;;12.92;100.00
59789;BME280;47353;51.614;5.530;2023-08-07T00:58:23;101230.84;;;12.92;100.00
59789;BME280;47353;51.614;5.530;2023-08-07T01:00:48;101230.31;;;12.90;100.00
59789;BME280;47353;51.614;5.530;2023-08-07T01:03:14;101233.09;;;12.90;100.00
59789;BME280;47353;51.614;5.530;2023-08-07T01:05:40;101220.34;;;12.84;100.00
59789;BME280;47353;51.614;5.530;2023-08-07T01:08:05;101236.72;;;12.86;100.00
59789;BME280;47353;51.614;5.530;2023-08-07T01:13:32;101230.31;;;12.85;100.00
59789;BME280;47353;51.614;5.530;2023-08-07T01:16:02;101232.81;;;12.87;100.00
59789;BME280;47353;51.614;5.530;2023-08-07T01:18:32;101238.66;;;12.90;100.00
59789;BME280;47353;51.614;5.530;2023-08-07T01:20:59;101245.28;;;12.89;100.00
59789;BME280;47353;51.614;5.530;2023-08-07T01:23:25;101246.97;;;12.90;100.00
59789;BME280;47353;51.614;5.530;2023-08-07T01:25:51;101233.94;;;12.86;100.00
59789;BME280;47353;51.614;5.530;2023-08-07T01:28:21;101244.44;;;12.94;100.00
59789;BME280;47353;51.614;5.530;2023-08-07T01:30:55;101250.56;;;12.91;100.00
59789;BME280;47353;51.614;5.530;2023-08-07T01:33:35;101254.47;;;12.95;100.00
59789;BME280;47353;51.614;5.530;2023-08-07T01:36:07;101255.56;;;12.94;100.00
59789;BME280;47353;51.614;5.530;2023-08-07T01:38:34;101253.06;;;12.97;100.00
59789;BME280;47353;51.614;5.530;2023-08-07T01:41:02;101246.69;;;12.97;100.00
59789;BME280;47353;51.614;5.530;2023-08-07T01:43:28;101253.38;;;13.01;100.00
59789;BME280;47353;51.614;5.530;2023-08-07T01:45:54;101259.47;;;13.03;100.00
59789;BME280;47353;51.614;5.530;2023-08-07T01:48:19;101249.47;;;13.02;100.00
59789;BME280;47353;51.614;5.530;2023-08-07T01:50:45;101256.13;;;13.06;100.00
59789;BME280;47353;51.614;5.530;2023-08-07T01:53:10;101257.22;;;13.05;100.00
59789;BME280;47353;51.614;5.530;2023-08-07T01:55:36;101261.13;;;13.04;100.00
59789;BME280;47353;51.614;5.530;2023-08-07T01:58:01;101273.63;;;13.06;100.00
59789;BME280;47353;51.614;5.530;2023-08-07T02:00:27;101268.06;;;13.06;100.00
59789;BME280;47353;51.614;5.530;2023-08-07T02:02:53;101266.69;;;13.04;100.00
59789;BME280;47353;51.614;5.530;2023-08-07T02:05:18;101272.22;;;12.99;100.00
59789;BME280;47353;51.614;5.530;2023-08-07T02:07:44;101287.25;;;12.98;100.00
59789;BME280;47353;51.614;5.530;2023-08-07T02:10:09;101275.56;;;12.96;100.00
59789;BME280;47353;51.614;5.530;2023-08-07T02:12:35;101270.56;;;12.93;100.00
59789;BME280;47353;51.614;5.530;2023-08-07T02:15:00;101277.25;;;12.92;100.00
59789;BME280;47353;51.614;5.530;2023-08-07T02:17:28;101270.59;;;12.88;100.00
59789;BME280;47353;51.614;5.530;2023-08-07T02:19:55;101286.97;;;12.89;100.00
59789;BME280;47353;51.614;5.530;2023-08-07T02:22:21;101272.00;;;12.85;100.00
59789;BME280;47353;51.614;5.530;2023-08-07T02:24:46;101276.41;;;12.86;100.00
59789;BME280;47353;51.614;5.530;2023-08-07T02:27:12;101275.63;;;12.86;100.00
59789;BME280;47353;51.614;5.530;2023-08-07T02:29:37;101282.25;;;12.85;100.00
59789;BME280;47353;51.614;5.530;2023-08-07T02:32:03;101278.66;;;12.84;100.00
59789;BME280;47353;51.614;5.530;2023-08-07T02:34:29;101278.66;;;12.84;100.00
59789;BME280;47353;51.614;5.530;2023-08-07T02:36:55;101277.81;;;12.84;100.00
59789;BME280;47353;51.614;5.530;2023-08-07T02:39:21;101275.91;;;12.84;100.00
59789;BME280;47353;51.614;5.530;2023-08-07T02:41:46;101281.44;;;12.84;100.00
59789;BME280;47353;51.614;5.530;2023-08-07T02:44:11;101276.97;;;12.88;100.00
59789;BME280;47353;51.614;5.530;2023-08-07T02:46:37;101293.09;;;12.86;100.00
59789;BME280;47353;51.614;5.530;2023-08-07T02:49:02;101281.69;;;12.88;100.00
59789;BME280;47353;51.614;5.530;2023-08-07T02:51:28;101286.44;;;12.87;100.00
59789;BME280;47353;51.614;5.530;2023-08-07T02:53:53;101273.38;;;12.88;100.00
59789;BME280;47353;51.614;5.530;2023-08-07T02:56:19;101276.97;;;12.88;100.00
59789;BME280;47353;51.614;5.530;2023-08-07T02:58:44;101285.03;;;12.90;100.00
59789;BME280;47353;51.614;5.530;2023-08-07T03:01:09;101260.59;;;12.87;100.00
59789;BME280;47353;51.614;5.530;2023-08-07T03:03:36;101289.75;;;12.89;100.00
59789;BME280;47353;51.614;5.530;2023-08-07T03:06:02;101281.41;;;12.89;100.00
59789;BME280;47353;51.614;5.530;2023-08-07T03:08:28;101286.97;;;12.89;100.00
59789;BME280;47353;51.614;5.530;2023-08-07T03:10:55;101277.81;;;12.89;100.00
59789;BME280;47353;51.614;5.530;2023-08-07T03:13:24;101279.47;;;12.90;100.00
59789;BME280;47353;51.614;5.530;2023-08-07T03:15:54;101273.63;;;12.91;100.00
59789;BME280;47353;51.614;5.530;2023-08-07T03:18:23;101278.06;;;12.92;100.00
59789;BME280;47353;51.614;5.530;2023-08-07T03:20:48;101274.75;;;12.90;100.00
59789;BME280;47353;51.614;5.530;2023-08-07T03:23:14;101272.78;;;12.91;100.00
59789;BME280;47353;51.614;5.530;2023-08-07T03:25:39;101271.97;;;12.90;100.00
59789;BME280;47353;51.614;5.530;2023-08-07T03:28:04;101272.50;;;12.92;100.00
59789;BME280;47353;51.614;5.530;2023-08-07T03:30:30;101275.84;;;12.94;100.00
59789;BME280;47353;51.614;5.530;2023-08-07T03:32:55;101263.09;;;12.93;100.00
59789;BME280;47353;51.614;5.530;2023-08-07T03:35:21;101266.69;;;12.94;100.00
59789;BME280;47353;51.614;5.530;2023-08-07T03:37:46;101263.91;;;12.94;100.00
59789;BME280;47353;51.614;5.530;2023-08-07T03:40:11;101260.31;;;12.93;100.00
59789;BME280;47353;51.614;5.530;2023-08-07T03:42:37;101264.75;;;12.94;100.00
59789;BME280;47353;51.614;5.530;2023-08-07T03:45:02;101262.25;;;12.88;100.00
59789;BME280;47353;51.614;5.530;2023-08-07T03:47:28;101275.28;;;12.92;100.00
59789;BME280;47353;51.614;5.530;2023-08-07T03:49:53;101267.25;;;12.91;100.00
59789;BME280;47353;51.614;5.530;2023-08-07T03:52:19;101255.59;;;12.89;100.00
59789;BME280;47353;51.614;5.530;2023-08-07T03:54:45;101262.25;;;12.93;100.00
59789;BME280;47353;51.614;5.530;2023-08-07T03:57:10;101263.91;;;12.94;100.00
59789;BME280;47353;51.614;5.530;2023-08-07T03:59:36;101268.63;;;12.93;100.00
59789;BME280;47353;51.614;5.530;2023-08-07T04:02:02;101272.78;;;12.96;100.00
59789;BME280;47353;51.614;5.530;2023-08-07T04:04:27;101271.97;;;12.95;100.00
59789;BME280;47353;51.614;5.530;2023-08-07T04:06:53;101270.03;;;13.01;100.00
59789;BME280;47353;51.614;5.530;2023-08-07T04:09:18;101269.44;;;12.99;100.00
59789;BME280;47353;51.614;5.530;2023-08-07T04:11:44;101270.84;;;12.96;100.00
59789;BME280;47353;51.614;5.530;2023-08-07T04:14:09;101263.63;;;13.00;100.00
59789;BME280;47353;51.614;5.530;2023-08-07T04:16:34;101264.47;;;13.01;100.00
59789;BME280;47353;51.614;5.530;2023-08-07T04:19:00;101268.09;;;13.01;100.00
59789;BME280;47353;51.614;5.530;2023-08-07T04:21:25;101267.78;;;13.08;100.00
59789;BME280;47353;51.614;5.530;2023-08-07T04:23:51;101266.41;;;13.10;100.00
59789;BME280;47353;51.614;5.530;2023-08-07T04:26:16;101270.00;;;13.11;100.00
59789;BME280;47353;51.614;5.530;2023-08-07T04:28:42;101275.53;;;13.11;100.00
59789;BME280;47353;51.614;5.530;2023-08-07T04:31:07;101261.66;;;13.11;100.00
59789;BME280;47353;51.614;5.530;2023-08-07T04:33:33;101274.16;;;13.13;100.00
59789;BME280;47353;51.614;5.530;2023-08-07T04:35:58;101277.50;;;13.10;100.00
59789;BME280;47353;51.614;5.530;2023-08-07T04:38:24;101283.31;;;13.14;100.00
59789;BME280;47353;51.614;5.530;2023-08-07T04:40:50;101282.22;;;13.15;100.00
59789;BME280;47353;51.614;5.530;2023-08-07T04:43:17;101284.72;;;13.16;100.00
59789;BME280;47353;51.614;5.530;2023-08-07T04:45:43;101278.88;;;13.18;100.00
59789;BME280;47353;51.614;5.530;2023-08-07T04:48:10;101289.16;;;13.17;100.00
59789;BME280;47353;51.614;5.530;2023-08-07T04:50:37;101281.38;;;13.19;100.00
59789;BME280;47353;51.614;5.530;2023-08-07T04:53:02;101278.59;;;13.19;100.00
59789;BME280;47353;51.614;5.530;2023-08-07T04:55:27;101289.44;;;13.16;100.00
59789;BME280;47353;51.614;5.530;2023-08-07T04:57:53;101292.75;;;13.23;100.00
59789;BME280;47353;51.614;5.530;2023-08-07T05:00:20;101288.84;;;13.24;100.00
59789;BME280;47353;51.614;5.530;2023-08-07T05:02:46;101295.53;;;13.23;100.00
59789;BME280;47353;51.614;5.530;2023-08-07T05:05:13;101299.41;;;13.27;100.00
59789;BME280;47353;51.614;5.530;2023-08-07T05:07:40;101288.28;;;13.27;100.00
59789;BME280;47353;51.614;5.530;2023-08-07T05:10:06;101295.78;;;13.26;100.00
59789;BME280;47353;51.614;5.530;2023-08-07T05:12:31;101300.78;;;13.29;100.00
59789;BME280;47353;51.614;5.530;2023-08-07T05:14:56;101296.91;;;13.30;100.00
59789;BME280;47353;51.614;5.530;2023-08-07T05:17:22;101307.16;;;13.35;100.00
59789;BME280;47353;51.614;5.530;2023-08-07T05:19:47;101302.16;;;13.37;100.00
59789;BME280;47353;51.614;5.530;2023-08-07T05:22:13;101317.72;;;13.38;100.00
59789;BME280;47353;51.614;5.530;2023-08-07T05:24:39;101313.25;;;13.42;100.00
59789;BME280;47353;51.614;5.530;2023-08-07T05:27:08;101319.94;;;13.41;100.00
59789;BME280;47353;51.614;5.530;2023-08-07T05:29:34;101319.38;;;13.44;100.00
59789;BME280;47353;51.614;5.530;2023-08-07T05:32:00;101324.63;;;13.46;100.00
59789;BME280;47353;51.614;5.530;2023-08-07T05:34:26;101329.91;;;13.47;100.00
59789;BME280;47353;51.614;5.530;2023-08-07T05:36:52;101338.53;;;13.46;100.00
59789;BME280;47353;51.614;5.530;2023-08-07T05:39:17;101337.19;;;13.43;100.00
59789;BME280;47353;51.614;5.530;2023-08-07T05:41:42;101337.19;;;13.38;100.00
59789;BME280;47353;51.614;5.530;2023-08-07T05:44:08;101347.47;;;13.43;100.00
59789;BME280;47353;51.614;5.530;2023-08-07T05:46:34;101343.03;;;13.42;100.00
59789;BME280;47353;51.614;5.530;2023-08-07T05:48:59;101347.16;;;13.44;100.00
59789;BME280;47353;51.614;5.530;2023-08-07T05:51:24;101345.81;;;13.42;100.00
59789;BME280;47353;51.614;5.530;2023-08-07T05:53:50;101353.56;;;13.45;100.00
59789;BME280;47353;51.614;5.530;2023-08-07T05:56:15;101356.09;;;13.41;100.00
59789;BME280;47353;51.614;5.530;2023-08-07T05:58:41;101348.00;;;13.45;100.00
59789;BME280;47353;51.614;5.530;2023-08-07T06:01:07;101348.88;;;13.40;100.00
59789;BME280;47353;51.614;5.530;2023-08-07T06:03:32;101347.19;;;13.39;100.00
59789;BME280;47353;51.614;5.530;2023-08-07T06:05:58;101357.22;;;13.40;100.00
59789;BME280;47353;51.614;5.530;2023-08-07T06:08:23;101353.31;;;13.41;100.00
59789;BME280;47353;51.614;5.530;2023-08-07T06:10:49;101357.44;;;13.49;100.00
59789;BME280;47353;51.614;5.530;2023-08-07T06:13:14;101363.28;;;13.47;100.00
59789;BME280;47353;51.614;5.530;2023-08-07T06:15:39;101357.44;;;13.54;100.00
59789;BME280;47353;51.614;5.530;2023-08-07T06:18:05;101365.75;;;13.59;100.00
59789;BME280;47353;51.614;5.530;2023-08-07T06:20:30;101367.13;;;13.66;100.00
59789;BME280;47353;51.614;5.530;2023-08-07T06:22:55;101376.56;;;13.65;100.00
59789;BME280;47353;51.614;5.530;2023-08-07T06:25:21;101380.19;;;13.61;100.00
59789;BME280;47353;51.614;5.530;2023-08-07T06:27:46;101378.25;;;13.61;100.00
59789;BME280;47353;51.614;5.530;2023-08-07T06:30:12;101363.78;;;13.59;100.00
59789;BME280;47353;51.614;5.530;2023-08-07T06:32:39;101377.13;;;13.62;100.00
59789;BME280;47353;51.614;5.530;2023-08-07T06:35:05;101383.81;;;13.66;100.00
59789;BME280;47353;51.614;5.530;2023-08-07T06:37:30;101384.34;;;13.68;100.00
59789;BME280;47353;51.614;5.530;2023-08-07T06:39:56;101390.19;;;13.72;100.00
59789;BME280;47353;51.614;5.530;2023-08-07T06:42:21;101389.59;;;13.80;100.00
59789;BME280;47353;51.614;5.530;2023-08-07T06:44:47;101398.72;;;13.85;100.00
59789;BME280;47353;51.614;5.530;2023-08-07T06:47:12;101391.44;;;13.94;100.00
59789;BME280;47353;51.614;5.530;2023-08-07T06:49:38;101398.91;;;14.09;100.00
59789;BME280;47353;51.614;5.530;2023-08-07T06:52:04;101396.63;;;14.26;100.00
59789;BME280;47353;51.614;5.530;2023-08-07T06:54:29;101399.91;;;14.33;100.00
59789;BME280;47353;51.614;5.530;2023-08-07T06:56:55;101403.09;;;14.55;100.00
59789;BME280;47353;51.614;5.530;2023-08-07T06:59:20;101400.25;;;14.65;100.00
59789;BME280;47353;51.614;5.530;2023-08-07T07:01:46;101399.97;;;14.95;100.00
59789;BME280;47353;51.614;5.530;2023-08-07T07:04:11;101404.69;;;14.99;100.00
59789;BME280;47353;51.614;5.530;2023-08-07T07:06:37;101415.16;;;15.13;100.00
59789;BME280;47353;51.614;5.530;2023-08-07T07:09:03;101414.31;;;15.12;100.00
59789;BME280;47353;51.614;5.530;2023-08-07T07:11:28;101426.06;;;15.09;100.00
59789;BME280;47353;51.614;5.530;2023-08-07T07:13:54;101427.34;;;15.22;100.00
59789;BME280;47353;51.614;5.530;2023-08-07T07:16:20;101437.09;;;15.19;100.00
59789;BME280;47353;51.614;5.530;2023-08-07T07:18:50;101435.16;;;15.20;100.00
59789;BME280;47353;51.614;5.530;2023-08-07T07:21:17;101439.13;;;15.14;100.00
59789;BME280;47353;51.614;5.530;2023-08-07T07:23:42;101444.41;;;15.15;100.00
59789;BME280;47353;51.614;5.530;2023-08-07T07:26:07;101438.97;;;15.29;100.00
59789;BME280;47353;51.614;5.530;2023-08-07T07:28:33;101437.28;;;15.33;100.00
59789;BME280;47353;51.614;5.530;2023-08-07T07:30:58;101450.84;;;15.44;100.00
59789;BME280;47353;51.614;5.530;2023-08-07T07:33:24;101455.84;;;15.47;100.00
59789;BME280;47353;51.614;5.530;2023-08-07T07:35:49;101450.88;;;15.68;100.00
59789;BME280;47353;51.614;5.530;2023-08-07T07:38:15;101456.69;;;15.95;100.00
59789;BME280;47353;51.614;5.530;2023-08-07T07:40:41;101463.00;;;16.05;100.00
59789;BME280;47353;51.614;5.530;2023-08-07T07:43:06;101476.44;;;16.03;100.00
59789;BME280;47353;51.614;5.530;2023-08-07T07:45:32;101479.72;;;15.87;100.00
59789;BME280;47353;51.614;5.530;2023-08-07T07:48:01;101482.84;;;15.52;100.00
59789;BME280;47353;51.614;5.530;2023-08-07T07:50:26;101486.16;;;15.25;100.00
59789;BME280;47353;51.614;5.530;2023-08-07T07:52:52;101489.88;;;15.16;100.00
59789;BME280;47353;51.614;5.530;2023-08-07T07:55:17;101487.38;;;15.14;100.00
59789;BME280;47353;51.614;5.530;2023-08-07T07:57:43;101490.22;;;15.04;100.00
59789;BME280;47353;51.614;5.530;2023-08-07T08:00:09;101503.22;;;15.19;100.00
59789;BME280;47353;51.614;5.530;2023-08-07T08:02:36;101485.50;;;15.04;100.00
59789;BME280;47353;51.614;5.530;2023-08-07T08:05:02;101491.63;;;15.07;100.00
59789;BME280;47353;51.614;5.530;2023-08-07T08:07:27;101487.38;;;15.14;100.00
59789;BME280;47353;51.614;5.530;2023-08-07T08:09:53;101495.91;;;15.28;100.00
59789;BME280;47353;51.614;5.530;2023-08-07T08:12:18;101490.13;;;15.53;100.00
59789;BME280;47353;51.614;5.530;2023-08-07T08:14:43;101490.59;;;16.30;100.00
59789;BME280;47353;51.614;5.530;2023-08-07T08:17:09;101498.69;;;17.75;100.00
59789;BME280;47353;51.614;5.530;2023-08-07T08:19:34;101497.81;;;18.83;95.32
59789;BME280;47353;51.614;5.530;2023-08-07T08:22:00;101501.91;;;20.18;99.46
59789;BME280;47353;51.614;5.530;2023-08-07T08:24:26;101500.63;;;21.06;93.03
59789;BME280;47353;51.614;5.530;2023-08-07T08:26:51;101508.66;;;21.67;79.58
59789;BME280;47353;51.614;5.530;2023-08-07T08:29:16;101501.31;;;21.92;81.97
59789;BME280;47353;51.614;5.530;2023-08-07T08:31:42;101505.44;;;22.69;81.32
59789;BME280;47353;51.614;5.530;2023-08-07T08:34:07;101513.25;;;23.14;72.30
59789;BME280;47353;51.614;5.530;2023-08-07T08:36:33;101517.69;;;22.73;64.26
59789;BME280;47353;51.614;5.530;2023-08-07T08:38:58;101516.63;;;23.81;69.30
59789;BME280;47353;51.614;5.530;2023-08-07T08:41:24;101514.88;;;24.81;72.51
59789;BME280;47353;51.614;5.530;2023-08-07T08:43:51;101517.31;;;24.46;61.55
59789;BME280;47353;51.614;5.530;2023-08-07T08:46:20;101513.06;;;23.72;63.15
59789;BME280;47353;51.614;5.530;2023-08-07T08:48:51;101516.50;;;22.54;65.78
59789;BME280;47353;51.614;5.530;2023-08-07T08:51:19;101518.56;;;21.90;67.07
59789;BME280;47353;51.614;5.530;2023-08-07T08:53:47;101520.66;;;21.21;69.96
59789;BME280;47353;51.614;5.530;2023-08-07T08:56:15;101520.44;;;21.69;66.21
59789;BME280;47353;51.614;5.530;2023-08-07T08:58:40;101524.16;;;22.45;64.17
59789;BME280;47353;51.614;5.530;2023-08-07T09:01:06;101530.16;;;23.43;59.50
59789;BME280;47353;51.614;5.530;2023-08-07T09:03:32;101521.47;;;24.61;59.63
59789;BME280;47353;51.614;5.530;2023-08-07T09:05:58;101523.28;;;25.57;52.62
59789;BME280;47353;51.614;5.530;2023-08-07T09:08:27;101521.03;;;26.05;49.76
59789;BME280;47353;51.614;5.530;2023-08-07T09:10:56;101525.56;;;26.88;45.99
59789;BME280;47353;51.614;5.530;2023-08-07T09:13:23;101528.13;;;27.27;45.25
59789;BME280;47353;51.614;5.530;2023-08-07T09:15:50;101531.72;;;27.62;42.63
59789;BME280;47353;51.614;5.530;2023-08-07T09:18:17;101532.78;;;28.38;41.19
59789;BME280;47353;51.614;5.530;2023-08-07T09:20:43;101523.16;;;28.68;36.59
59789;BME280;47353;51.614;5.530;2023-08-07T09:23:09;101528.25;;;28.82;35.85
59789;BME280;47353;51.614;5.530;2023-08-07T09:25:35;101530.44;;;28.43;35.77
59789;BME280;47353;51.614;5.530;2023-08-07T09:28:05;101529.63;;;29.17;37.17
59789;BME280;47353;51.614;5.530;2023-08-07T09:30:32;101536.25;;;29.55;34.33
59789;BME280;47353;51.614;5.530;2023-08-07T09:32:58;101537.56;;;30.30;34.17
59789;BME280;47353;51.614;5.530;2023-08-07T09:35:24;101532.06;;;30.18;34.02
59789;BME280;47353;51.614;5.530;2023-08-07T09:37:50;101545.66;;;29.03;32.90
59789;BME280;47353;51.614;5.530;2023-08-07T09:40:15;101538.75;;;27.30;38.28
59789;BME280;47353;51.614;5.530;2023-08-07T09:42:41;101552.09;;;27.84;35.97
59789;BME280;47353;51.614;5.530;2023-08-07T09:45:27;101545.53;;;29.18;37.99
59789;BME280;47353;51.614;5.530;2023-08-07T09:48:00;101547.66;;;29.84;35.65
59789;BME280;47353;51.614;5.530;2023-08-07T09:50:26;101549.22;;;31.13;32.94
59789;BME280;47353;51.614;5.530;2023-08-07T09:52:52;101556.44;;;31.50;31.63
59789;BME280;47353;51.614;5.530;2023-08-07T09:55:18;101554.97;;;31.91;28.56
59789;BME280;47353;51.614;5.530;2023-08-07T09:57:44;101548.91;;;32.31;28.31
59789;BME280;47353;51.614;5.530;2023-08-07T10:00:10;101550.31;;;31.52;28.62
59789;BME280;47353;51.614;5.530;2023-08-07T10:02:41;101550.53;;;30.68;29.92
59789;BME280;47353;51.614;5.530;2023-08-07T10:05:07;101560.06;;;31.37;31.08
59789;BME280;47353;51.614;5.530;2023-08-07T10:07:34;101561.50;;;31.88;27.09
59789;BME280;47353;51.614;5.530;2023-08-07T10:10:00;101565.22;;;31.96;25.74
59789;BME280;47353;51.614;5.530;2023-08-07T10:12:26;101569.00;;;32.28;24.56
59789;BME280;47353;51.614;5.530;2023-08-07T10:14:53;101565.78;;;32.79;24.84
59789;BME280;47353;51.614;5.530;2023-08-07T10:17:21;101560.81;;;33.39;25.79
59789;BME280;47353;51.614;5.530;2023-08-07T10:19:47;101559.47;;;33.61;23.37
59789;BME280;47353;51.614;5.530;2023-08-07T10:22:14;101563.63;;;34.29;26.05
59789;BME280;47353;51.614;5.530;2023-08-07T10:24:42;101551.03;;;34.12;24.29
59789;BME280;47353;51.614;5.530;2023-08-07T10:27:10;101565.75;;;32.96;24.68
59789;BME280;47353;51.614;5.530;2023-08-07T10:29:37;101564.94;;;32.50;26.43
59789;BME280;47353;51.614;5.530;2023-08-07T10:32:05;101572.09;;;31.81;25.28
59789;BME280;47353;51.614;5.530;2023-08-07T10:34:34;101572.75;;;32.74;27.94
59789;BME280;47353;51.614;5.530;2023-08-07T10:37:00;101560.34;;;33.33;24.11
59789;BME280;47353;51.614;5.530;2023-08-07T10:39:25;101573.81;;;33.68;23.71
59789;BME280;47353;51.614;5.530;2023-08-07T10:41:54;101579.00;;;34.63;23.59
59789;BME280;47353;51.614;5.530;2023-08-07T10:44:21;101570.97;;;34.95;22.06
59789;BME280;47353;51.614;5.530;2023-08-07T10:46:49;101571.94;;;34.74;22.58
59789;BME280;47353;51.614;5.530;2023-08-07T10:49:35;101575.63;;;35.22;23.62
59789;BME280;47353;51.614;5.530;2023-08-07T10:52:11;101576.53;;;34.68;22.85
59789;BME280;47353;51.614;5.530;2023-08-07T10:54:48;101578.84;;;35.28;24.18
59789;BME280;47353;51.614;5.530;2023-08-07T10:57:15;101564.31;;;35.01;22.01
59789;BME280;47353;51.614;5.530;2023-08-07T11:00:01;101569.91;;;35.15;23.91
59789;BME280;47353;51.614;5.530;2023-08-07T11:02:30;101569.13;;;34.67;20.52
59789;BME280;47353;51.614;5.530;2023-08-07T11:04:57;101579.59;;;33.54;23.43
59789;BME280;47353;51.614;5.530;2023-08-07T11:07:24;101580.31;;;33.93;21.06
59789;BME280;47353;51.614;5.530;2023-08-07T11:09:50;101579.50;;;34.54;22.29
59789;BME280;47353;51.614;5.530;2023-08-07T11:12:15;101584.53;;;36.32;22.57
59789;BME280;47353;51.614;5.530;2023-08-07T11:14:41;101582.25;;;36.73;20.39
59789;BME280;47353;51.614;5.530;2023-08-07T11:17:06;101586.94;;;36.91;21.46
59789;BME280;47353;51.614;5.530;2023-08-07T11:19:32;101588.34;;;37.02;21.25
59789;BME280;47353;51.614;5.530;2023-08-07T11:21:58;101584.28;;;37.23;20.50
59789;BME280;47353;51.614;5.530;2023-08-07T11:24:23;101589.03;;;36.87;19.47
59789;BME280;47353;51.614;5.530;2023-08-07T11:26:49;101589.22;;;35.93;20.22
59789;BME280;47353;51.614;5.530;2023-08-07T11:29:18;101576.38;;;35.26;20.33
59789;BME280;47353;51.614;5.530;2023-08-07T11:31:44;101580.44;;;35.36;20.47
59789;BME280;47353;51.614;5.530;2023-08-07T11:34:10;101584.34;;;35.53;19.93
59789;BME280;47353;51.614;5.530;2023-08-07T11:36:42;101579.19;;;36.04;20.45
59789;BME280;47353;51.614;5.530;2023-08-07T11:39:08;101576.41;;;36.24;19.41
59789;BME280;47353;51.614;5.530;2023-08-07T11:41:33;101590.56;;;36.15;18.82
59789;BME280;47353;51.614;5.530;2023-08-07T11:43:59;101583.59;;;36.92;19.13
59789;BME280;47353;51.614;5.530;2023-08-07T11:46:26;101582.47;;;37.32;18.51
59789;BME280;47353;51.614;5.530;2023-08-07T11:48:52;101587.69;;;37.80;18.56
59789;BME280;47353;51.614;5.530;2023-08-07T11:51:20;101586.69;;;37.28;17.93
59789;BME280;47353;51.614;5.530;2023-08-07T11:53:45;101588.47;;;38.00;17.66
59789;BME280;47353;51.614;5.530;2023-08-07T11:56:12;101578.25;;;37.76;17.50
59789;BME280;47353;51.614;5.530;2023-08-07T11:58:45;101579.00;;;37.60;18.39
59789;BME280;47353;51.614;5.530;2023-08-07T12:01:22;101569.44;;;37.63;17.59
59789;BME280;47353;51.614;5.530;2023-08-07T12:03:55;101577.03;;;37.34;17.57
59789;BME280;47353;51.614;5.530;2023-08-07T12:06:25;101584.97;;;37.30;16.90
59789;BME280;47353;51.614;5.530;2023-08-07T12:08:54;101567.81;;;37.43;17.42
59789;BME280;47353;51.614;5.530;2023-08-07T12:11:20;101575.72;;;37.58;18.00
59789;BME280;47353;51.614;5.530;2023-08-07T12:13:47;101569.75;;;38.60;17.42
59789;BME280;47353;51.614;5.530;2023-08-07T12:16:14;101574.97;;;38.81;17.33
59789;BME280;47353;51.614;5.530;2023-08-07T12:18:51;101567.41;;;39.03;17.82
59789;BME280;47353;51.614;5.530;2023-08-07T12:21:21;101573.38;;;38.12;17.40
59789;BME280;47353;51.614;5.530;2023-08-07T12:23:50;101577.22;;;37.86;16.23
59789;BME280;47353;51.614;5.530;2023-08-07T12:26:16;101565.56;;;35.75;18.48
59789;BME280;47353;51.614;5.530;2023-08-07T12:28:42;101582.34;;;36.13;16.62
59789;BME280;47353;51.614;5.530;2023-08-07T12:31:08;101574.06;;;36.15;18.36
59789;BME280;47353;51.614;5.530;2023-08-07T12:33:34;101569.16;;;35.11;16.95
59789;BME280;47353;51.614;5.530;2023-08-07T12:36:00;101576.13;;;34.63;19.58
59789;BME280;47353;51.614;5.530;2023-08-07T12:38:26;101575.28;;;34.08;19.40
59789;BME280;47353;51.614;5.530;2023-08-07T12:40:52;101564.69;;;35.07;18.88